Time;durP1;ratioP1;P1;durP2;ratioP2;P2;SDS_P1;SDS_P2;PMS_P1;PMS_P2;Temp;Humidity;BMP_temperature;BMP_pressure;BME280_temperature;BME280_humidity;BME280_pressure;Samples;Min_cycle;Max_cycle;Signal;HPM_P1;HPM_P2
2023/06/01 00:01:27;;;;;;;1.98;1.02;;;;;;;;;;5023276;28;20040;-70
2023/06/01 00:03:52;;;;;;;3.88;1.20;;;;;;;;;;5024556;28;20033;-69
2023/06/01 00:06:17;;;;;;;4.70;1.90;;;;;;;;;;5014149;28;20045;-69
2023/06/01 00:08:43;;;;;;;6.10;1.30;;;;;;;;;;4995393;28;20102;-69
2023/06/01 00:11:08;;;;;;;2.97;1.00;;;;;;;;;;5023313;28;20037;-71
2023/06/01 00:13:34;;;;;;;3.58;1.25;;;;;;;;;;5024089;28;20049;-69
2023/06/01 00:15:59;;;;;;;1.75;1.13;;;;;;;;;;5023499;28;20599;-71
2023/06/01 00:18:27;;;;;;;2.15;1.08;;;;;;;;;;5020017;28;20116;-70
2023/06/01 00:20:52;;;;;;;2.80;1.23;;;;;;;;;;5012007;28;20048;-69
2023/06/01 00:23:19;;;;;;;2.72;1.30;;;;;;;;;;5016795;28;20044;-72
2023/06/01 00:25:45;;;;;;;2.88;1.20;;;;;;;;;;5026250;28;20659;-72
2023/06/01 00:28:10;;;;;;;5.15;1.20;;;;;;;;;;5026531;28;20106;-70
2023/06/01 00:30:36;;;;;;;3.65;1.05;;;;;;;;;;5013536;28;20069;-71
2023/06/01 00:33:01;;;;;;;1.95;1.20;;;;;;;;;;5007250;28;20087;-69
2023/06/01 00:35:26;;;;;;;2.75;1.42;;;;;;;;;;5009548;28;20041;-69
2023/06/01 00:37:52;;;;;;;1.80;0.95;;;;;;;;;;5010317;28;20053;-69
2023/06/01 00:40:17;;;;;;;3.08;1.17;;;;;;;;;;5017921;28;20044;-69
2023/06/01 00:42:43;;;;;;;2.63;1.40;;;;;;;;;;5017502;28;20033;-68
2023/06/01 00:45:08;;;;;;;3.78;1.10;;;;;;;;;;5026771;28;20044;-69
2023/06/01 00:47:41;;;;;;;3.85;1.30;;;;;;;;;;5009489;28;20112;-69
2023/06/01 00:50:07;;;;;;;3.38;1.23;;;;;;;;;;4989948;28;20046;-71
2023/06/01 00:52:32;;;;;;;2.08;1.00;;;;;;;;;;5002196;28;20664;-69
2023/06/01 00:54:57;;;;;;;2.20;1.20;;;;;;;;;;5017485;28;20076;-68
2023/06/01 00:57:26;;;;;;;2.80;1.33;;;;;;;;;;5014025;28;20033;-72
2023/06/01 00:59:52;;;;;;;2.75;1.08;;;;;;;;;;5025660;28;20033;-69
2023/06/01 01:02:18;;;;;;;2.47;1.30;;;;;;;;;;5019894;28;20128;-70
2023/06/01 01:04:44;;;;;;;3.63;1.25;;;;;;;;;;5015847;28;20045;-71
2023/06/01 01:07:20;;;;;;;2.65;1.20;;;;;;;;;;5025998;28;20071;-70
2023/06/01 01:09:55;;;;;;;2.95;0.90;;;;;;;;;;5024383;28;20559;-70
2023/06/01 01:12:39;;;;;;;2.30;1.25;;;;;;;;;;5030160;28;20037;-69
2023/06/01 01:15:14;;;;;;;2.70;1.33;;;;;;;;;;4978995;28;20058;-71
2023/06/01 01:17:44;;;;;;;2.40;0.98;;;;;;;;;;4981312;28;20056;-73
2023/06/01 01:20:22;;;;;;;2.50;1.15;;;;;;;;;;5012974;28;20094;-72
2023/06/01 01:22:53;;;;;;;2.33;1.20;;;;;;;;;;5025435;28;20557;-69
2023/06/01 01:25:43;;;;;;;4.13;1.42;;;;;;;;;;4999929;28;20038;-70
2023/06/01 01:28:47;;;;;;;2.72;1.10;;;;;;;;;;4980539;28;20057;-72
2023/06/01 01:31:15;;;;;;;2.30;1.10;;;;;;;;;;5015517;28;20037;-70
2023/06/01 01:33:41;;;;;;;1.17;1.00;;;;;;;;;;5015461;28;20041;-69
2023/06/01 01:36:09;;;;;;;4.03;1.10;;;;;;;;;;4999731;28;20063;-69
2023/06/01 01:38:36;;;;;;;3.05;0.98;;;;;;;;;;5024003;28;20041;-69
2023/06/01 01:41:02;;;;;;;2.30;1.00;;;;;;;;;;5025682;28;20086;-69
2023/06/01 01:43:28;;;;;;;1.35;1.02;;;;;;;;;;5017434;28;20047;-69
2023/06/01 01:46:18;;;;;;;3.55;1.10;;;;;;;;;;5007418;28;20046;-69
2023/06/01 01:48:52;;;;;;;3.00;1.40;;;;;;;;;;4993508;28;20037;-71
2023/06/01 01:51:27;;;;;;;2.17;1.10;;;;;;;;;;5012160;28;20553;-72
2023/06/01 01:53:54;;;;;;;1.77;1.13;;;;;;;;;;5014807;28;20204;-69
2023/06/01 01:56:21;;;;;;;2.53;1.13;;;;;;;;;;5018922;28;20131;-71
2023/06/01 01:58:48;;;;;;;1.95;1.13;;;;;;;;;;5017574;28;20194;-69
2023/06/01 02:01:14;;;;;;;3.35;1.13;;;;;;;;;;4995651;28;20378;-69
2023/06/01 02:03:40;;;;;;;2.53;1.55;;;;;;;;;;5005752;28;20045;-72
2023/06/01 02:06:05;;;;;;;3.28;1.35;;;;;;;;;;5018523;28;20059;-69
2023/06/01 02:08:31;;;;;;;2.08;1.20;;;;;;;;;;5027328;28;20037;-71
2023/06/01 02:10:56;;;;;;;2.53;1.27;;;;;;;;;;4995596;28;20652;-73
2023/06/01 02:13:21;;;;;;;2.17;1.10;;;;;;;;;;5005300;28;20037;-69
2023/06/01 02:15:47;;;;;;;4.80;1.55;;;;;;;;;;4994681;28;20128;-71
2023/06/01 02:18:17;;;;;;;2.35;1.08;;;;;;;;;;5022243;28;20041;-69
2023/06/01 02:20:44;;;;;;;2.30;1.30;;;;;;;;;;5007554;28;20037;-70
2023/06/01 02:23:10;;;;;;;3.55;1.70;;;;;;;;;;4994761;28;20266;-71
2023/06/01 02:25:35;;;;;;;3.30;1.23;;;;;;;;;;5004867;28;20051;-70
2023/06/01 02:28:01;;;;;;;3.00;1.55;;;;;;;;;;5003381;28;20421;-70
2023/06/01 02:30:26;;;;;;;2.42;1.20;;;;;;;;;;5016213;28;20083;-70
2023/06/01 02:32:52;;;;;;;3.85;1.55;;;;;;;;;;5018120;28;20041;-69
2023/06/01 02:35:18;;;;;;;3.25;1.42;;;;;;;;;;5010563;28;20770;-69
2023/06/01 02:37:43;;;;;;;2.53;1.40;;;;;;;;;;5010164;28;20139;-70
2023/06/01 02:40:11;;;;;;;2.28;1.20;;;;;;;;;;5024712;28;20116;-70
2023/06/01 02:42:38;;;;;;;3.30;1.45;;;;;;;;;;4997205;28;20117;-69
2023/06/01 02:45:05;;;;;;;4.75;1.20;;;;;;;;;;5014582;28;20513;-69
2023/06/01 02:47:30;;;;;;;2.78;1.27;;;;;;;;;;5021750;28;20045;-69
2023/06/01 02:49:55;;;;;;;2.60;1.40;;;;;;;;;;5022291;28;20033;-69
2023/06/01 02:52:21;;;;;;;3.25;1.60;;;;;;;;;;5005337;28;20107;-69
2023/06/01 02:54:46;;;;;;;2.15;1.40;;;;;;;;;;5019553;28;20137;-69
2023/06/01 02:57:11;;;;;;;2.83;1.30;;;;;;;;;;4994577;28;20033;-69
2023/06/01 02:59:37;;;;;;;2.97;1.50;;;;;;;;;;5009119;28;20517;-69
2023/06/01 03:02:02;;;;;;;2.63;1.10;;;;;;;;;;5029784;28;20401;-69
2023/06/01 03:04:28;;;;;;;3.13;1.27;;;;;;;;;;5024642;28;20049;-69
2023/06/01 03:06:54;;;;;;;3.90;1.20;;;;;;;;;;4995117;28;20045;-69
2023/06/01 03:09:19;;;;;;;4.80;1.60;;;;;;;;;;5004646;28;20072;-69
2023/06/01 03:11:45;;;;;;;2.15;1.20;;;;;;;;;;5000379;28;20655;-69
2023/06/01 03:14:10;;;;;;;4.50;1.48;;;;;;;;;;5018940;28;20080;-69
2023/06/01 03:16:35;;;;;;;2.60;1.30;;;;;;;;;;5004589;28;20041;-69
2023/06/01 03:19:01;;;;;;;2.92;1.40;;;;;;;;;;5003610;28;20542;-69
2023/06/01 03:21:27;;;;;;;2.35;1.30;;;;;;;;;;5008333;28;21078;-69
2023/06/01 03:23:52;;;;;;;3.10;1.27;;;;;;;;;;5017288;28;20037;-69
2023/06/01 03:26:20;;;;;;;2.45;1.58;;;;;;;;;;5022857;28;20736;-69
2023/06/01 03:28:46;;;;;;;2.80;1.33;;;;;;;;;;5017410;28;20045;-69
2023/06/01 03:31:11;;;;;;;2.78;1.63;;;;;;;;;;5013310;28;20420;-69
2023/06/01 03:33:37;;;;;;;3.70;1.80;;;;;;;;;;5015336;28;20612;-69
2023/06/01 03:36:04;;;;;;;3.65;1.90;;;;;;;;;;5011545;28;20576;-69
2023/06/01 03:38:30;;;;;;;3.30;1.60;;;;;;;;;;4977114;28;20042;-69
2023/06/01 03:40:55;;;;;;;4.78;2.55;;;;;;;;;;5017390;28;20052;-69
2023/06/01 03:43:20;;;;;;;3.15;1.80;;;;;;;;;;5008542;28;20037;-69
2023/06/01 03:45:46;;;;;;;3.13;1.83;;;;;;;;;;5016704;28;20075;-69
2023/06/01 03:48:11;;;;;;;5.85;2.17;;;;;;;;;;4999465;28;20061;-69
2023/06/01 03:50:37;;;;;;;4.20;2.00;;;;;;;;;;5027352;28;20703;-69
2023/06/01 03:53:02;;;;;;;4.78;2.67;;;;;;;;;;5015973;28;20045;-69
2023/06/01 03:55:29;;;;;;;3.65;1.63;;;;;;;;;;5029268;28;20061;-69
2023/06/01 03:57:54;;;;;;;3.53;1.90;;;;;;;;;;5023236;28;20151;-69
2023/06/01 04:00:20;;;;;;;3.67;1.77;;;;;;;;;;5007763;28;20546;-69
2023/06/01 04:02:54;;;;;;;5.63;3.25;;;;;;;;;;4997727;28;20056;-69
2023/06/01 04:05:21;;;;;;;5.45;2.50;;;;;;;;;;4997191;28;20744;-69
2023/06/01 04:07:48;;;;;;;5.43;2.60;;;;;;;;;;5026393;28;20632;-69
2023/06/01 04:10:16;;;;;;;4.93;2.45;;;;;;;;;;5027618;28;20051;-69
2023/06/01 04:12:46;;;;;;;7.30;2.95;;;;;;;;;;5026913;28;20047;-69
2023/06/01 04:15:12;;;;;;;5.35;2.40;;;;;;;;;;5016254;28;20118;-69
2023/06/01 04:17:39;;;;;;;6.25;2.38;;;;;;;;;;5013656;28;20587;-69
2023/06/01 04:20:06;;;;;;;3.65;1.98;;;;;;;;;;5007688;28;20491;-69
2023/06/01 04:22:32;;;;;;;6.05;2.10;;;;;;;;;;5007099;28;20079;-69
2023/06/01 04:24:57;;;;;;;3.85;2.28;;;;;;;;;;5020206;28;20041;-67
2023/06/01 04:27:24;;;;;;;4.10;1.98;;;;;;;;;;5025724;28;20064;-69
2023/06/01 04:29:50;;;;;;;3.88;2.20;;;;;;;;;;5016563;28;20037;-69
2023/06/01 04:32:21;;;;;;;3.17;2.15;;;;;;;;;;5018439;28;20044;-69
2023/06/01 04:34:49;;;;;;;3.45;2.25;;;;;;;;;;5009412;28;20052;-69
2023/06/01 04:37:15;;;;;;;6.60;3.90;;;;;;;;;;5025848;28;20044;-69
2023/06/01 04:39:42;;;;;;;4.05;2.88;;;;;;;;;;5028882;28;20041;-69
2023/06/01 04:42:08;;;;;;;6.63;2.63;;;;;;;;;;5007901;28;20042;-69
2023/06/01 04:44:34;;;;;;;6.90;2.70;;;;;;;;;;5007570;28;20046;-73
2023/06/01 04:47:03;;;;;;;5.38;2.40;;;;;;;;;;4996111;28;20044;-70
2023/06/01 04:49:30;;;;;;;5.18;2.95;;;;;;;;;;5006286;28;20860;-70
2023/06/01 04:51:55;;;;;;;5.38;2.20;;;;;;;;;;5022150;28;20535;-70
2023/06/01 04:54:20;;;;;;;4.82;1.98;;;;;;;;;;5006383;28;20025;-68
2023/06/01 04:56:46;;;;;;;3.03;1.45;;;;;;;;;;4975551;28;20044;-68
2023/06/01 04:59:11;;;;;;;3.53;2.10;;;;;;;;;;5016745;28;20521;-68
2023/06/01 05:01:38;;;;;;;4.47;1.85;;;;;;;;;;5000413;28;20047;-68
2023/06/01 05:04:04;;;;;;;3.42;1.58;;;;;;;;;;5013705;28;20916;-65
2023/06/01 05:06:29;;;;;;;5.05;2.22;;;;;;;;;;5004604;28;20049;-67
2023/06/01 05:08:55;;;;;;;5.63;2.88;;;;;;;;;;5000028;28;20048;-66
2023/06/01 05:11:21;;;;;;;15.63;4.40;;;;;;;;;;5001178;28;20037;-66
2023/06/01 05:13:46;;;;;;;7.20;4.07;;;;;;;;;;5016221;28;20048;-67
2023/06/01 05:16:12;;;;;;;10.65;4.90;;;;;;;;;;5008098;28;20045;-66
2023/06/01 05:18:38;;;;;;;8.93;4.30;;;;;;;;;;5003286;28;20068;-67
2023/06/01 05:21:03;;;;;;;9.48;5.50;;;;;;;;;;5001730;28;20044;-68
2023/06/01 05:23:29;;;;;;;9.35;4.47;;;;;;;;;;5000347;28;20052;-68
2023/06/01 05:26:01;;;;;;;11.48;5.43;;;;;;;;;;5014654;28;20050;-68
2023/06/01 05:28:28;;;;;;;10.80;5.10;;;;;;;;;;5007485;28;20045;-68
2023/06/01 05:30:54;;;;;;;7.18;4.82;;;;;;;;;;5023271;28;20050;-68
2023/06/01 05:33:19;;;;;;;9.50;5.78;;;;;;;;;;5020083;28;20037;-66
2023/06/01 05:35:45;;;;;;;9.75;4.85;;;;;;;;;;5009521;28;20033;-66
2023/06/01 05:38:10;;;;;;;10.32;5.15;;;;;;;;;;4998034;28;20433;-67
2023/06/01 05:40:36;;;;;;;7.60;4.65;;;;;;;;;;5003384;28;20053;-65
2023/06/01 05:43:01;;;;;;;9.27;5.15;;;;;;;;;;4993495;28;20119;-65
2023/06/01 05:45:26;;;;;;;9.18;5.05;;;;;;;;;;5008053;28;20037;-65
2023/06/01 05:47:52;;;;;;;8.98;4.35;;;;;;;;;;5018996;28;20049;-65
2023/06/01 05:50:17;;;;;;;8.93;5.18;;;;;;;;;;5022286;28;20401;-65
2023/06/01 05:52:43;;;;;;;9.82;5.95;;;;;;;;;;5014289;28;20049;-68
2023/06/01 05:55:08;;;;;;;12.50;5.82;;;;;;;;;;5023718;28;20041;-68
2023/06/01 05:57:33;;;;;;;10.77;5.70;;;;;;;;;;5020422;28;20533;-64
2023/06/01 05:59:59;;;;;;;14.55;7.00;;;;;;;;;;5024062;28;20059;-65
2023/06/01 06:02:24;;;;;;;10.40;7.03;;;;;;;;;;5023507;28;20033;-65
2023/06/01 06:04:50;;;;;;;11.05;6.30;;;;;;;;;;5024147;28;20048;-66
2023/06/01 06:07:15;;;;;;;9.85;5.75;;;;;;;;;;5013185;28;20041;-67
2023/06/01 06:09:41;;;;;;;10.15;6.07;;;;;;;;;;5022582;28;20073;-66
2023/06/01 06:12:06;;;;;;;10.38;6.20;;;;;;;;;;4994958;28;20049;-65
2023/06/01 06:14:32;;;;;;;11.25;6.53;;;;;;;;;;5005109;28;20513;-64
2023/06/01 06:16:57;;;;;;;10.00;6.22;;;;;;;;;;5004267;28;20045;-65
2023/06/01 06:19:23;;;;;;;9.07;5.68;;;;;;;;;;5009015;28;20123;-67
2023/06/01 06:21:49;;;;;;;8.60;5.40;;;;;;;;;;5010170;28;20544;-67
2023/06/01 06:24:14;;;;;;;9.57;6.22;;;;;;;;;;5010797;28;20177;-64
2023/06/01 06:26:40;;;;;;;11.48;6.30;;;;;;;;;;5004062;28;20048;-66
2023/06/01 06:29:05;;;;;;;10.73;6.82;;;;;;;;;;5005001;28;20116;-66
2023/06/01 06:31:31;;;;;;;9.15;6.40;;;;;;;;;;5010092;28;20053;-65
2023/06/01 06:33:56;;;;;;;11.82;7.63;;;;;;;;;;5006327;28;20075;-67
2023/06/01 06:36:21;;;;;;;10.55;6.90;;;;;;;;;;5024097;28;20052;-66
2023/06/01 06:38:47;;;;;;;9.75;5.82;;;;;;;;;;4996474;28;20099;-66
2023/06/01 06:41:12;;;;;;;9.82;5.65;;;;;;;;;;5021400;28;20041;-64
2023/06/01 06:43:38;;;;;;;9.55;5.80;;;;;;;;;;5009779;28;20492;-69
2023/06/01 06:46:03;;;;;;;9.43;6.30;;;;;;;;;;5014663;28;20048;-67
2023/06/01 06:48:29;;;;;;;10.05;6.90;;;;;;;;;;5008331;28;20136;-66
2023/06/01 06:50:55;;;;;;;10.05;6.80;;;;;;;;;;5025050;28;20520;-65
2023/06/01 06:53:20;;;;;;;10.55;6.45;;;;;;;;;;4996796;28;20044;-66
2023/06/01 06:55:46;;;;;;;10.80;6.20;;;;;;;;;;5022601;28;20037;-66
2023/06/01 06:58:12;;;;;;;10.93;6.57;;;;;;;;;;5010187;28;20048;-65
2023/06/01 07:00:37;;;;;;;9.93;6.03;;;;;;;;;;5003699;28;20096;-64
2023/06/01 07:03:03;;;;;;;11.20;6.85;;;;;;;;;;5008027;28;20045;-65
2023/06/01 07:05:28;;;;;;;11.40;6.45;;;;;;;;;;5030474;28;20048;-66
2023/06/01 07:07:54;;;;;;;11.70;7.28;;;;;;;;;;4998240;28;20814;-66
2023/06/01 07:10:20;;;;;;;10.30;7.35;;;;;;;;;;5023871;28;20579;-66
2023/06/01 07:12:45;;;;;;;11.75;6.28;;;;;;;;;;5022236;28;20040;-66
2023/06/01 07:15:10;;;;;;;11.35;7.55;;;;;;;;;;5023301;28;20037;-66
2023/06/01 07:17:36;;;;;;;13.13;7.50;;;;;;;;;;4998339;28;20548;-65
2023/06/01 07:20:06;;;;;;;11.35;7.15;;;;;;;;;;5002850;28;20060;-65
2023/06/01 07:22:32;;;;;;;11.60;7.22;;;;;;;;;;4993886;28;20040;-66
2023/06/01 07:24:58;;;;;;;13.80;7.03;;;;;;;;;;5011495;28;20595;-66
2023/06/01 07:27:24;;;;;;;13.07;7.45;;;;;;;;;;5014184;28;20072;-66
2023/06/01 07:29:54;;;;;;;12.00;7.68;;;;;;;;;;5008599;28;20040;-66
2023/06/01 07:32:21;;;;;;;12.70;7.47;;;;;;;;;;5026498;28;20069;-66
2023/06/01 07:34:46;;;;;;;13.38;8.07;;;;;;;;;;5014010;28;20041;-66
2023/06/01 07:37:12;;;;;;;15.00;8.48;;;;;;;;;;4989408;28;20033;-65
2023/06/01 07:39:37;;;;;;;7.60;5.15;;;;;;;;;;5007025;28;20062;-66
2023/06/01 07:42:03;;;;;;;13.85;8.32;;;;;;;;;;5005544;28;20116;-66
2023/06/01 07:44:28;;;;;;;12.07;7.90;;;;;;;;;;5008948;28;20061;-65
2023/06/01 07:46:53;;;;;;;12.57;8.40;;;;;;;;;;5014626;28;20607;-65
2023/06/01 07:49:19;;;;;;;8.48;6.25;;;;;;;;;;5002126;28;20037;-66
2023/06/01 07:51:44;;;;;;;12.35;7.82;;;;;;;;;;5006158;28;20123;-65
2023/06/01 07:54:10;;;;;;;11.30;7.85;;;;;;;;;;5007014;28;20111;-66
2023/06/01 07:56:36;;;;;;;11.70;7.07;;;;;;;;;;5016185;28;20035;-66
2023/06/01 07:59:02;;;;;;;10.38;6.82;;;;;;;;;;4999457;28;20580;-65
2023/06/01 08:01:27;;;;;;;10.30;6.60;;;;;;;;;;5009289;28;20042;-66
2023/06/01 08:03:53;;;;;;;9.80;5.03;;;;;;;;;;5002138;28;20032;-65
2023/06/01 08:06:22;;;;;;;7.60;4.97;;;;;;;;;;5011714;28;20060;-66
2023/06/01 08:08:49;;;;;;;8.48;4.53;;;;;;;;;;5021541;28;20053;-66
2023/06/01 08:11:15;;;;;;;10.88;5.57;;;;;;;;;;5007367;28;20061;-65
2023/06/01 08:13:41;;;;;;;9.30;5.85;;;;;;;;;;5019674;28;20055;-65
2023/06/01 08:16:07;;;;;;;9.50;5.85;;;;;;;;;;5008852;28;20610;-66
2023/06/01 08:18:33;;;;;;;10.30;5.85;;;;;;;;;;4981785;28;20043;-65
2023/06/01 08:21:00;;;;;;;6.82;5.35;;;;;;;;;;5030584;28;20058;-65
2023/06/01 08:23:26;;;;;;;8.27;5.75;;;;;;;;;;5024257;28;20124;-65
2023/06/01 08:25:51;;;;;;;7.78;5.45;;;;;;;;;;5000898;28;20591;-66
2023/06/01 08:28:17;;;;;;;9.73;6.68;;;;;;;;;;5014698;28;20037;-66
2023/06/01 08:30:42;;;;;;;11.57;6.95;;;;;;;;;;4999438;28;20060;-66
2023/06/01 08:33:07;;;;;;;8.25;6.30;;;;;;;;;;5020942;28;20056;-66
2023/06/01 08:35:34;;;;;;;9.35;5.63;;;;;;;;;;5012913;28;20532;-65
2023/06/01 08:38:00;;;;;;;10.18;5.72;;;;;;;;;;5005824;28;20049;-65
2023/06/01 08:40:27;;;;;;;8.38;5.90;;;;;;;;;;4995105;28;20034;-65
2023/06/01 08:42:58;;;;;;;8.65;6.03;;;;;;;;;;5013463;28;20151;-66
2023/06/01 08:45:24;;;;;;;10.65;6.75;;;;;;;;;;4998469;28;20045;-65
2023/06/01 08:47:53;;;;;;;11.18;7.00;;;;;;;;;;5013455;28;20091;-65
2023/06/01 08:50:20;;;;;;;13.05;7.25;;;;;;;;;;5005745;28;20076;-65
2023/06/01 08:52:46;;;;;;;12.93;8.77;;;;;;;;;;5013030;28;20074;-66
2023/06/01 08:55:13;;;;;;;15.80;10.25;;;;;;;;;;5011292;28;20041;-65
2023/06/01 08:57:42;;;;;;;14.90;9.52;;;;;;;;;;4995104;28;20037;-66
2023/06/01 09:00:11;;;;;;;12.73;9.82;;;;;;;;;;5006027;28;20065;-66
2023/06/01 09:02:37;;;;;;;14.95;9.40;;;;;;;;;;5016131;28;20060;-65
2023/06/01 09:05:03;;;;;;;15.50;9.68;;;;;;;;;;5015832;28;20064;-66
2023/06/01 09:07:31;;;;;;;13.63;9.48;;;;;;;;;;4995737;28;20187;-65
2023/06/01 09:09:56;;;;;;;11.40;9.00;;;;;;;;;;5011039;28;20437;-66
2023/06/01 09:12:29;;;;;;;15.45;10.10;;;;;;;;;;4997447;28;20050;-66
2023/06/01 09:15:07;;;;;;;13.77;9.45;;;;;;;;;;5011753;28;20049;-66
2023/06/01 09:17:33;;;;;;;15.75;10.25;;;;;;;;;;5016089;28;20040;-66
2023/06/01 09:19:58;;;;;;;15.20;11.52;;;;;;;;;;5023275;28;20104;-65
2023/06/01 09:22:24;;;;;;;15.57;10.82;;;;;;;;;;5018947;28;20052;-65
2023/06/01 09:24:59;;;;;;;16.77;11.00;;;;;;;;;;4994531;28;20138;-65
2023/06/01 09:27:26;;;;;;;18.38;11.07;;;;;;;;;;5019317;28;20679;-66
2023/06/01 09:29:55;;;;;;;15.05;11.50;;;;;;;;;;5013915;28;20060;-65
2023/06/01 09:32:21;;;;;;;17.00;12.70;;;;;;;;;;4994869;28;20080;-65
2023/06/01 09:34:47;;;;;;;16.35;11.82;;;;;;;;;;5005329;28;20552;-65
2023/06/01 09:37:13;;;;;;;18.52;12.73;;;;;;;;;;5015097;28;20041;-66
2023/06/01 09:39:39;;;;;;;18.65;11.80;;;;;;;;;;5018527;28;20112;-66
2023/06/01 09:42:06;;;;;;;15.60;10.68;;;;;;;;;;5006021;28;20530;-66
2023/06/01 09:44:37;;;;;;;17.80;11.90;;;;;;;;;;4997025;28;20045;-65
2023/06/01 09:47:04;;;;;;;16.15;12.32;;;;;;;;;;5016649;28;20124;-65
2023/06/01 09:49:39;;;;;;;17.48;11.77;;;;;;;;;;5000782;28;20038;-65
2023/06/01 09:52:04;;;;;;;17.95;12.82;;;;;;;;;;5002708;28;20640;-66
2023/06/01 09:54:34;;;;;;;17.05;12.15;;;;;;;;;;5005615;28;20080;-66
2023/06/01 09:57:02;;;;;;;14.40;10.17;;;;;;;;;;5005512;28;20051;-65
2023/06/01 09:59:29;;;;;;;14.50;10.70;;;;;;;;;;5019259;28;20352;-65
2023/06/01 10:01:57;;;;;;;18.55;12.25;;;;;;;;;;5009508;28;20056;-65
2023/06/01 10:04:26;;;;;;;14.43;10.88;;;;;;;;;;5013892;28;20033;-66
2023/06/01 10:06:53;;;;;;;15.65;9.90;;;;;;;;;;5024342;28;20037;-65
2023/06/01 10:09:20;;;;;;;15.65;11.80;;;;;;;;;;5020103;28;20106;-65
2023/06/01 10:11:48;;;;;;;12.95;10.40;;;;;;;;;;4981035;28;20038;-65
2023/06/01 10:14:14;;;;;;;14.05;9.52;;;;;;;;;;5024296;28;20036;-65
2023/06/01 10:16:41;;;;;;;13.43;9.52;;;;;;;;;;5013820;28;20140;-66
2023/06/01 10:19:11;;;;;;;15.45;9.70;;;;;;;;;;5020188;28;20041;-66
2023/06/01 10:21:36;;;;;;;12.70;10.52;;;;;;;;;;5004844;28;20045;-66
2023/06/01 10:24:03;;;;;;;12.55;9.43;;;;;;;;;;5002628;28;20648;-66
2023/06/01 10:26:33;;;;;;;11.98;8.75;;;;;;;;;;5003889;28;20045;-65
2023/06/01 10:29:00;;;;;;;11.68;9.27;;;;;;;;;;5012069;28;20045;-66
2023/06/01 10:31:35;;;;;;;12.20;9.30;;;;;;;;;;4979349;28;20470;-65
2023/06/01 10:34:02;;;;;;;13.00;9.25;;;;;;;;;;5019643;28;20036;-66
2023/06/01 10:36:52;;;;;;;13.43;10.05;;;;;;;;;;5002283;28;20037;-65
2023/06/01 10:39:28;;;;;;;22.02;8.68;;;;;;;;;;5024139;28;20074;-66
2023/06/01 10:41:57;;;;;;;14.82;8.70;;;;;;;;;;5012912;28;20041;-66
2023/06/01 10:44:38;;;;;;;12.63;8.50;;;;;;;;;;5007274;28;20044;-66
2023/06/01 10:47:04;;;;;;;13.98;8.18;;;;;;;;;;5011413;28;20104;-65
2023/06/01 10:49:48;;;;;;;12.85;8.63;;;;;;;;;;5022665;28;20044;-66
2023/06/01 10:52:35;;;;;;;13.45;7.53;;;;;;;;;;5012842;28;20032;-65
2023/06/01 10:55:07;;;;;;;9.90;7.53;;;;;;;;;;5026430;28;20033;-66
2023/06/01 10:57:39;;;;;;;10.55;8.18;;;;;;;;;;5011531;28;20038;-66
2023/06/01 11:00:11;;;;;;;10.73;8.02;;;;;;;;;;5020829;28;20029;-65
2023/06/01 11:03:05;;;;;;;10.57;6.65;;;;;;;;;;5021796;28;20532;-65
2023/06/01 11:05:40;;;;;;;8.85;6.75;;;;;;;;;;4972959;28;20097;-65
2023/06/01 11:08:22;;;;;;;10.85;7.30;;;;;;;;;;5009866;28;20044;-66
2023/06/01 11:10:50;;;;;;;10.07;6.75;;;;;;;;;;5013579;28;20060;-65
2023/06/01 11:13:18;;;;;;;9.88;6.97;;;;;;;;;;5007133;28;20077;-66
2023/06/01 11:16:24;;;;;;;9.90;6.05;;;;;;;;;;5001134;28;20107;-66
2023/06/01 11:18:58;;;;;;;13.25;5.95;;;;;;;;;;4998048;28;20066;-66
2023/06/01 11:21:29;;;;;;;8.73;6.25;;;;;;;;;;5004056;28;20041;-66
2023/06/01 11:23:55;;;;;;;;;;;;;;;;;;5001541;28;20075;-65
2023/06/01 11:26:24;;;;;;;8.80;6.20;;;;;;;;;;5009742;28;19938;-66
2023/06/01 11:28:51;;;;;;;9.55;6.85;;;;;;;;;;5020556;28;20045;-66
2023/06/01 11:31:19;;;;;;;7.20;5.55;;;;;;;;;;4996633;28;20093;-66
2023/06/01 11:33:52;;;;;;;7.53;5.80;;;;;;;;;;5017158;28;20127;-66
2023/06/01 11:36:20;;;;;;;7.10;5.38;;;;;;;;;;4995875;28;20049;-65
2023/06/01 11:38:46;;;;;;;7.72;5.50;;;;;;;;;;5019555;28;20041;-66
2023/06/01 11:41:11;;;;;;;8.13;5.55;;;;;;;;;;5010266;28;20094;-66
2023/06/01 11:43:37;;;;;;;6.80;5.47;;;;;;;;;;5012213;28;20045;-66
2023/06/01 11:46:11;;;;;;;9.90;5.97;;;;;;;;;;5011428;28;20180;-66
2023/06/01 11:48:36;;;;;;;6.60;5.15;;;;;;;;;;5010999;28;20041;-66
2023/06/01 11:51:04;;;;;;;8.63;5.07;;;;;;;;;;5012411;28;20044;-66
2023/06/01 11:53:33;;;;;;;10.10;5.68;;;;;;;;;;5018653;28;20171;-66
2023/06/01 11:55:58;;;;;;;7.20;5.18;;;;;;;;;;5016964;28;20062;-66
2023/06/01 11:58:29;;;;;;;7.78;5.05;;;;;;;;;;5019292;28;20124;-66
2023/06/01 12:00:55;;;;;;;9.02;5.22;;;;;;;;;;5017451;28;20056;-66
2023/06/01 12:03:21;;;;;;;8.73;5.35;;;;;;;;;;5009177;28;20549;-66
2023/06/01 12:05:49;;;;;;;9.25;5.13;;;;;;;;;;5022815;28;20171;-65
2023/06/01 12:08:17;;;;;;;9.50;5.13;;;;;;;;;;5023308;28;20068;-65
2023/06/01 12:10:50;;;;;;;6.05;4.63;;;;;;;;;;5017884;28;20045;-66
2023/06/01 12:13:16;;;;;;;6.18;4.43;;;;;;;;;;5029238;28;20573;-66
2023/06/01 12:15:42;;;;;;;7.45;4.82;;;;;;;;;;5009956;28;20652;-66
2023/06/01 12:18:08;;;;;;;8.02;5.07;;;;;;;;;;5007117;28;20051;-66
2023/06/01 12:20:35;;;;;;;6.22;4.05;;;;;;;;;;5018088;28;20107;-66
2023/06/01 12:23:13;;;;;;;7.28;3.65;;;;;;;;;;5016973;28;20411;-66
2023/06/01 12:25:58;;;;;;;5.80;3.38;;;;;;;;;;5026841;28;20057;-66
2023/06/01 12:28:25;;;;;;;8.48;4.30;;;;;;;;;;5004949;28;20052;-65
2023/06/01 12:31:15;;;;;;;6.95;3.97;;;;;;;;;;5007289;28;20549;-66
2023/06/01 12:33:44;;;;;;;6.45;3.83;;;;;;;;;;4994244;28;20160;-66
2023/06/01 12:36:09;;;;;;;5.45;4.10;;;;;;;;;;5021096;28;20036;-66
2023/06/01 12:38:50;;;;;;;6.85;3.97;;;;;;;;;;5024868;28;20505;-66
2023/06/01 12:41:17;;;;;;;6.65;4.13;;;;;;;;;;5023222;28;20037;-66
2023/06/01 12:43:46;;;;;;;7.63;4.20;;;;;;;;;;5002711;28;20148;-66
2023/06/01 12:46:26;;;;;;;6.97;3.80;;;;;;;;;;5016812;28;20053;-66
2023/06/01 12:48:53;;;;;;;7.80;3.95;;;;;;;;;;5006601;28;20056;-66
2023/06/01 12:51:21;;;;;;;4.82;3.72;;;;;;;;;;4980397;28;20525;-66
2023/06/01 12:53:47;;;;;;;8.70;4.30;;;;;;;;;;5020491;28;20032;-66
2023/06/01 12:56:13;;;;;;;6.25;3.80;;;;;;;;;;5016778;28;20065;-66
2023/06/01 12:58:39;;;;;;;7.03;4.03;;;;;;;;;;5025450;28;20065;-66
2023/06/01 13:01:05;;;;;;;7.20;3.65;;;;;;;;;;5026853;28;20053;-66
2023/06/01 13:03:31;;;;;;;7.43;3.88;;;;;;;;;;5026799;28;20063;-66
2023/06/01 13:05:57;;;;;;;11.43;4.10;;;;;;;;;;5014817;28;20513;-66
2023/06/01 13:08:23;;;;;;;5.35;3.53;;;;;;;;;;5033354;28;20041;-66
2023/06/01 13:10:49;;;;;;;7.93;3.97;;;;;;;;;;5015010;28;20595;-66
2023/06/01 13:13:15;;;;;;;7.50;4.28;;;;;;;;;;5009728;28;20053;-66
2023/06/01 13:15:44;;;;;;;6.75;3.63;;;;;;;;;;5021618;28;20072;-66
2023/06/01 13:18:11;;;;;;;32.30;5.85;;;;;;;;;;5021963;28;20051;-66
2023/06/01 13:20:36;;;;;;;5.90;3.97;;;;;;;;;;4980187;28;20054;-66
2023/06/01 13:23:03;;;;;;;10.27;3.78;;;;;;;;;;5025992;28;20102;-66
2023/06/01 13:25:29;;;;;;;5.75;3.97;;;;;;;;;;5015088;28;20037;-66
2023/06/01 13:27:54;;;;;;;8.77;4.07;;;;;;;;;;5027937;28;20041;-66
2023/06/01 13:30:20;;;;;;;5.82;3.83;;;;;;;;;;5026335;28;20041;-67
2023/06/01 13:32:45;;;;;;;7.03;4.57;;;;;;;;;;5014940;28;20063;-66
2023/06/01 13:35:11;;;;;;;7.28;4.07;;;;;;;;;;5025222;28;20041;-66
2023/06/01 13:37:37;;;;;;;18.73;4.65;;;;;;;;;;5020934;28;20053;-67
2023/06/01 13:40:05;;;;;;;7.03;3.75;;;;;;;;;;5015999;28;20101;-66
2023/06/01 13:42:32;;;;;;;5.90;3.28;;;;;;;;;;5008902;28;20060;-66
2023/06/01 13:44:58;;;;;;;6.57;3.72;;;;;;;;;;5024790;28;20036;-66
2023/06/01 13:47:23;;;;;;;8.60;3.85;;;;;;;;;;5012550;28;20041;-67
2023/06/01 13:49:48;;;;;;;5.70;3.50;;;;;;;;;;5013900;28;20925;-66
2023/06/01 13:52:14;;;;;;;5.35;3.72;;;;;;;;;;5001167;28;20029;-66
2023/06/01 13:54:39;;;;;;;6.72;3.95;;;;;;;;;;5009238;28;20043;-66
2023/06/01 13:57:08;;;;;;;6.88;3.67;;;;;;;;;;5022978;28;20442;-66
2023/06/01 13:59:35;;;;;;;7.22;3.70;;;;;;;;;;5014552;28;20037;-66
2023/06/01 14:02:01;;;;;;;5.53;3.38;;;;;;;;;;5001120;28;20047;-66
2023/06/01 14:04:26;;;;;;;6.25;3.33;;;;;;;;;;5011228;28;20037;-66
2023/06/01 14:06:52;;;;;;;4.93;3.35;;;;;;;;;;5011646;28;20100;-66
2023/06/01 14:09:18;;;;;;;8.60;3.55;;;;;;;;;;5004485;28;20064;-66
2023/06/01 14:11:44;;;;;;;5.60;3.50;;;;;;;;;;5007019;28;20645;-66
2023/06/01 14:14:10;;;;;;;5.75;3.67;;;;;;;;;;4978704;28;20131;-66
2023/06/01 14:16:35;;;;;;;5.85;3.65;;;;;;;;;;4997570;28;20119;-66
2023/06/01 14:19:01;;;;;;;4.53;3.05;;;;;;;;;;5007453;28;20533;-67
2023/06/01 14:21:28;;;;;;;4.53;3.05;;;;;;;;;;4980281;28;20068;-66
2023/06/01 14:23:54;;;;;;;23.15;4.30;;;;;;;;;;5024937;28;20131;-66
2023/06/01 14:26:20;;;;;;;7.47;3.47;;;;;;;;;;5014283;28;20464;-66
2023/06/01 14:28:46;;;;;;;5.13;3.00;;;;;;;;;;4996280;28;20426;-67
2023/06/01 14:31:11;;;;;;;5.28;3.40;;;;;;;;;;5023516;28;20058;-67
2023/06/01 14:33:37;;;;;;;5.30;3.70;;;;;;;;;;5009310;28;20429;-66
2023/06/01 14:36:04;;;;;;;6.20;3.50;;;;;;;;;;5011011;28;20588;-66
2023/06/01 14:38:29;;;;;;;6.72;3.28;;;;;;;;;;5004835;28;20041;-66
2023/06/01 14:40:55;;;;;;;4.97;3.10;;;;;;;;;;5019218;28;20036;-66